Time;durP1;ratioP1;P1;durP2;ratioP2;P2;SDS_P1;SDS_P2;PMS_P1;PMS_P2;Temp;Humidity;BMP_temperature;BMP_pressure;BME280_temperature;BME280_humidity;BME280_pressure;Samples;Min_cycle;Max_cycle;Signal;HPM_P1;HPM_P2
2023/07/22 00:00:33;;;;;;;;;;;;;;;;;;5080084;27;89585;-77
2023/07/22 00:02:58;;;;;;;;;;;;;;;;;;5076657;27;90277;-77
2023/07/22 00:05:25;;;;;;;;;;;;;;;;;;5076225;27;89071;-77
2023/07/22 00:07:50;;;;;;;;;;;;;;;;;;5074275;27;89945;-77
2023/07/22 00:10:15;;;;;;;;;;;;;;;;;;5081787;27;89687;-77
2023/07/22 00:12:41;;;;;;;;;;;;;;;;;;5082716;27;89503;-78
2023/07/22 00:15:06;;;;;;;;;;;;;;;;;;5074541;27;89626;-77
2023/07/22 00:17:32;;;;;;;;;;;;;;;;;;5078565;27;89330;-77
2023/07/22 00:19:57;;;;;;;;;;;;;;;;;;5079994;27;89485;-77
2023/07/22 00:22:23;;;;;;;;;;;;;;;;;;5081804;27;89068;-76
2023/07/22 00:24:48;;;;;;;;;;;;;;;;;;5078423;27;89713;-77
2023/07/22 00:27:14;;;;;;;;;;;;;;;;;;5075549;27;90586;-77
2023/07/22 00:29:39;;;;;;;;;;;;;;;;;;5078003;27;92097;-77
2023/07/22 00:32:07;;;;;;;;;;;;;;;;;;5081526;27;88961;-77
2023/07/22 00:34:32;;;;;;;;;;;;;;;;;;5072150;27;93398;-77
2023/07/22 00:36:57;;;;;;;;;;;;;;;;;;5078021;27;89119;-77
2023/07/22 00:39:23;;;;;;;;;;;;;;;;;;5073731;27;89392;-77
2023/07/22 00:41:48;;;;;;;;;;;;;;;;;;5076347;27;90765;-77
2023/07/22 00:44:13;;;;;;;;;;;;;;;;;;5080064;27;89875;-78
2023/07/22 00:46:38;;;;;;;;;;;;;;;;;;5079976;27;91017;-77
2023/07/22 00:49:07;;;;;;;;;;;;;;;;;;5076582;27;89546;-77
2023/07/22 00:51:32;;;;;;;;;;;;;;;;;;5081199;27;89683;-77
2023/07/22 00:53:58;;;;;;;;;;;;;;;;;;5079669;27;89660;-77
2023/07/22 00:56:23;;;;;;;;;;;;;;;;;;5080570;27;89185;-77
2023/07/22 00:58:49;;;;;;;;;;;;;;;;;;5077373;27;90134;-77
2023/07/22 01:01:14;;;;;;;;;;;;;;;;;;5077549;27;89972;-77
2023/07/22 01:03:41;;;;;;;;;;;;;;;;;;5081600;27;89045;-77
2023/07/22 01:06:06;;;;;;;;;;;;;;;;;;5074353;27;89492;-77
2023/07/22 01:08:32;;;;;;;;;;;;;;;;;;5076413;27;89343;-77
2023/07/22 01:10:57;;;;;;;;;;;;;;;;;;5074129;27;88996;-78
2023/07/22 01:13:22;;;;;;;;;;;;;;;;;;5079980;27;90794;-77
2023/07/22 01:15:48;;;;;;;;;;;;;;;;;;5071327;27;91457;-77
2023/07/22 01:18:14;;;;;;;;;;;;;;;;;;5078814;27;92164;-77
2023/07/22 01:20:39;;;;;;;;;;;;;;;;;;5076089;27;90103;-77
2023/07/22 01:23:04;;;;;;;;;;;;;;;;;;5076024;27;89010;-78
2023/07/22 01:25:30;;;;;;;;;;;;;;;;;;5074885;27;90109;-77
2023/07/22 01:27:55;;;;;;;;;;;;;;;;;;5078495;27;89378;-76
2023/07/22 01:30:20;;;;;;;;;;;;;;;;;;5077521;27;89091;-77
2023/07/22 01:32:50;;;;;;;;;;;;;;;;;;5077287;27;89474;-77
2023/07/22 01:35:15;;;;;;;;;;;;;;;;;;5079273;27;90856;-77
2023/07/22 01:37:40;;;;;;;;;;;;;;;;;;5076527;27;89642;-76
2023/07/22 01:40:11;;;;;;;;;;;;;;;;;;5076842;27;89281;-77
2023/07/22 01:42:37;;;;;;;;;;;;;;;;;;5073094;27;90087;-77
2023/07/22 01:45:02;;;;;;;;;;;;;;;;;;5079084;27;89912;-77
2023/07/22 01:47:27;;;;;;;;;;;;;;;;;;5076056;27;89190;-77
2023/07/22 01:49:53;;;;;;;;;;;;;;;;;;5078348;27;89009;-77
2023/07/22 01:52:18;;;;;;;;;;;;;;;;;;5078238;27;89633;-77
2023/07/22 01:54:43;;;;;;;;;;;;;;;;;;5078002;27;92214;-77
2023/07/22 01:57:09;;;;;;;;;;;;;;;;;;5082671;27;89045;-77
2023/07/22 01:59:34;;;;;;;;;;;;;;;;;;5075522;27;89850;-77
2023/07/22 02:01:59;;;;;;;;;;;;;;;;;;5071458;27;89408;-77
2023/07/22 02:04:24;;;;;;;;;;;;;;;;;;5082501;27;89693;-77
2023/07/22 02:06:49;;;;;;;;;;;;;;;;;;5078501;27;89214;-77
2023/07/22 02:09:15;;;;;;;;;;;;;;;;;;5074539;27;89609;-77
2023/07/22 02:11:40;;;;;;;;;;;;;;;;;;5077323;27;90900;-77
2023/07/22 02:14:08;;;;;;;;;;;;;;;;;;5072480;27;92394;-78
2023/07/22 02:16:34;;;;;;;;;;;;;;;;;;5073504;27;89117;-77
2023/07/22 02:19:00;;;;;;;;;;;;;;;;;;5078800;27;90694;-78
2023/07/22 02:21:25;;;;;;;;;;;;;;;;;;5079490;27;90008;-77
2023/07/22 02:23:50;;;;;;;;;;;;;;;;;;5074392;27;90297;-77
2023/07/22 02:26:15;;;;;;;;;;;;;;;;;;5076155;27;90235;-77
2023/07/22 02:28:40;;;;;;;;;;;;;;;;;;5079529;27;89280;-77
2023/07/22 02:31:07;;;;;;;;;;;;;;;;;;5073630;27;89923;-77
2023/07/22 02:33:32;;;;;;;;;;;;;;;;;;5077218;27;89956;-77
2023/07/22 02:35:57;;;;;;;;;;;;;;;;;;5079223;27;89502;-77
2023/07/22 02:38:22;;;;;;;;;;;;;;;;;;5078744;27;90017;-76
2023/07/22 02:40:48;;;;;;;;;;;;;;;;;;5082669;27;89639;-77
2023/07/22 02:43:13;;;;;;;;;;;;;;;;;;5079019;27;89310;-77
2023/07/22 02:45:39;;;;;;;;;;;;;;;;;;5075949;27;89123;-76
2023/07/22 02:48:04;;;;;;;;;;;;;;;;;;5078066;27;89357;-76
2023/07/22 02:50:30;;;;;;;;;;;;;;;;;;5079068;27;89570;-76
2023/07/22 02:52:55;;;;;;;;;;;;;;;;;;5073570;27;89937;-76
2023/07/22 02:55:23;;;;;;;;;;;;;;;;;;5078288;27;89104;-78
2023/07/22 02:57:48;;;;;;;;;;;;;;;;;;5073606;27;89768;-78
2023/07/22 03:00:17;;;;;;;;;;;;;;;;;;5077835;27;91993;-77
2023/07/22 03:02:42;;;;;;;;;;;;;;;;;;5079655;27;90548;-77
2023/07/22 03:05:08;;;;;;;;;;;;;;;;;;5081355;27;89759;-78
2023/07/22 03:07:39;;;;;;;;;;;;;;;;;;5075723;27;90550;-77
2023/07/22 03:10:05;;;;;;;;;;;;;;;;;;5072209;27;89563;-77
2023/07/22 03:12:30;;;;;;;;;;;;;;;;;;5076327;27;91293;-77
2023/07/22 03:14:55;;;;;;;;;;;;;;;;;;5071934;27;90811;-78
2023/07/22 03:17:21;;;;;;;;;;;;;;;;;;5078222;27;89461;-78
2023/07/22 03:19:46;;;;;;;;;;;;;;;;;;5076941;27;89186;-78
2023/07/22 03:22:21;;;;;;;;;;;;;;;;;;5077788;27;89043;-78
2023/07/22 03:24:47;;;;;;;;;;;;;;;;;;5076062;27;90291;-78
2023/07/22 03:27:13;;;;;;;;;;;;;;;;;;5078010;27;89472;-78
2023/07/22 03:29:38;;;;;;;;;;;;;;;;;;5077150;27;90657;-78
2023/07/22 03:32:04;;;;;;;;;;;;;;;;;;5080774;27;91191;-77
2023/07/22 03:34:30;;;;;;;;;;;;;;;;;;5081122;27;89017;-78
2023/07/22 03:36:55;;;;;;;;;;;;;;;;;;5082204;27;92134;-77
2023/07/22 03:39:20;;;;;;;;;;;;;;;;;;5079188;27;90774;-77
2023/07/22 03:41:45;;;;;;;;;;;;;;;;;;5077726;27;89470;-78
2023/07/22 03:44:11;;;;;;;;;;;;;;;;;;5083584;27;89538;-78
2023/07/22 03:46:37;;;;;;;;;;;;;;;;;;5084510;27;89000;-78
2023/07/22 03:49:02;;;;;;;;;;;;;;;;;;5077495;27;90635;-78
2023/07/22 03:51:27;;;;;;;;;;;;;;;;;;5080058;27;89220;-77
2023/07/22 03:53:52;;;;;;;;;;;;;;;;;;5082109;27;89146;-77
2023/07/22 03:56:17;;;;;;;;;;;;;;;;;;5075497;27;90539;-78
2023/07/22 03:58:43;;;;;;;;;;;;;;;;;;5081393;27;89404;-78
2023/07/22 04:01:10;;;;;;;;;;;;;;;;;;5079717;27;89125;-77
2023/07/22 04:03:35;;;;;;;;;;;;;;;;;;5079481;27;89724;-77
2023/07/22 04:06:01;;;;;;;;;;;;;;;;;;5085210;27;89687;-77
2023/07/22 04:08:26;;;;;;;;;;;;;;;;;;5077018;27;90068;-77
2023/07/22 04:10:54;;;;;;;;;;;;;;;;;;5079139;27;89516;-77
2023/07/22 04:13:20;;;;;;;;;;;;;;;;;;5083766;27;89255;-77
2023/07/22 04:15:46;;;;;;;;;;;;;;;;;;5080984;27;89070;-77
2023/07/22 04:18:11;;;;;;;;;;;;;;;;;;5075757;27;89150;-78
2023/07/22 04:20:36;;;;;;;;;;;;;;;;;;5079099;27;89971;-77
2023/07/22 04:23:02;;;;;;;;;;;;;;;;;;5081460;27;89760;-78
2023/07/22 04:25:27;;;;;;;;;;;;;;;;;;5083207;27;90796;-78
2023/07/22 04:27:52;;;;;;;;;;;;;;;;;;5082519;27;89343;-78
2023/07/22 04:30:20;;;;;;;;;;;;;;;;;;5077808;27;89147;-77
2023/07/22 04:32:47;;;;;;;;;;;;;;;;;;5078744;27;89026;-77
2023/07/22 04:35:12;;;;;;;;;;;;;;;;;;5080786;27;89496;-77
2023/07/22 04:37:37;;;;;;;;;;;;;;;;;;5084496;27;89468;-77
2023/07/22 04:40:06;;;;;;;;;;;;;;;;;;5078309;27;89658;-77
2023/07/22 04:42:31;;;;;;;;;;;;;;;;;;5077437;27;89531;-77
2023/07/22 04:44:56;;;;;;;;;;;;;;;;;;5077979;27;89159;-77
2023/07/22 04:47:22;;;;;;;;;;;;;;;;;;5079652;27;89543;-77
2023/07/22 04:49:47;;;;;;;;;;;;;;;;;;5080224;27;89477;-77
2023/07/22 04:52:12;;;;;;;;;;;;;;;;;;5079788;27;89440;-77
2023/07/22 04:54:38;;;;;;;;;;;;;;;;;;5076816;27;90023;-77
2023/07/22 04:57:03;;;;;;;;;;;;;;;;;;5075594;27;89566;-77
2023/07/22 04:59:28;;;;;;;;;;;;;;;;;;5078336;27;89091;-77
2023/07/22 05:01:54;;;;;;;;;;;;;;;;;;5081707;27;89711;-78
2023/07/22 05:04:19;;;;;;;;;;;;;;;;;;5078453;27;90224;-78
2023/07/22 05:06:45;;;;;;;;;;;;;;;;;;5071523;27;89236;-77
2023/07/22 05:09:10;;;;;;;;;;;;;;;;;;5085785;27;89548;-77
2023/07/22 05:11:35;;;;;;;;;;;;;;;;;;5081401;27;89249;-77
2023/07/22 05:14:00;;;;;;;;;;;;;;;;;;5072075;27;89424;-77
2023/07/22 05:16:26;;;;;;;;;;;;;;;;;;5077841;27;89749;-78
2023/07/22 05:18:51;;;;;;;;;;;;;;;;;;5081284;27;90561;-75
2023/07/22 05:21:16;;;;;;;;;;;;;;;;;;5078319;27;89501;-77
2023/07/22 05:23:41;;;;;;;;;;;;;;;;;;5078125;27;89436;-77
2023/07/22 05:26:07;;;;;;;;;;;;;;;;;;5075345;27;89505;-77
2023/07/22 05:28:32;;;;;;;;;;;;;;;;;;5078431;27;89560;-76
2023/07/22 05:30:57;;;;;;;;;;;;;;;;;;5081016;27;89288;-76
2023/07/22 05:33:22;;;;;;;;;;;;;;;;;;5078320;27;89501;-76
2023/07/22 05:35:47;;;;;;;;;;;;;;;;;;5082655;27;89280;-76
2023/07/22 05:38:13;;;;;;;;;;;;;;;;;;5084438;27;89594;-76
2023/07/22 05:40:38;;;;;;;;;;;;;;;;;;5078212;27;90843;-76
2023/07/22 05:43:03;;;;;;;;;;;;;;;;;;5076117;27;91029;-76
2023/07/22 05:45:28;;;;;;;;;;;;;;;;;;5084601;27;89773;-74
2023/07/22 05:47:53;;;;;;;;;;;;;;;;;;5081066;27;90974;-74
2023/07/22 05:50:19;;;;;;;;;;;;;;;;;;5079012;27;90140;-75
2023/07/22 05:52:45;;;;;;;;;;;;;;;;;;5087766;27;89115;-75
2023/07/22 05:55:10;;;;;;;;;;;;;;;;;;5083846;27;90302;-74
2023/07/22 05:57:35;;;;;;;;;;;;;;;;;;5075631;27;89754;-77
2023/07/22 06:00:00;;;;;;;;;;;;;;;;;;5073283;27;89616;-76
2023/07/22 06:02:25;;;;;;;;;;;;;;;;;;5077444;27;89261;-75
2023/07/22 06:04:51;;;;;;;;;;;;;;;;;;5074528;27;89606;-76
2023/07/22 06:07:16;;;;;;;;;;;;;;;;;;5083158;27;90142;-75
2023/07/22 06:09:41;;;;;;;;;;;;;;;;;;5073700;27;89825;-74
2023/07/22 06:12:06;;;;;;;;;;;;;;;;;;5075153;27;89444;-74
2023/07/22 06:14:32;;;;;;;;;;;;;;;;;;5080752;27;89322;-75
2023/07/22 06:16:57;;;;;;;;;;;;;;;;;;5073065;27;91657;-75
2023/07/22 06:19:23;;;;;;;;;;;;;;;;;;5076039;27;90111;-75
2023/07/22 06:21:48;;;;;;;;;;;;;;;;;;5079456;27;90763;-75
2023/07/22 06:24:14;;;;;;;;;;;;;;;;;;5082505;27;89856;-75
2023/07/22 06:26:39;;;;;;;;;;;;;;;;;;5078370;27;89463;-75
2023/07/22 06:29:04;;;;;;;;;;;;;;;;;;5074576;27;90427;-74
2023/07/22 06:31:30;;;;;;;;;;;;;;;;;;5075498;27;89241;-74
2023/07/22 06:33:56;;;;;;;;;;;;;;;;;;5073604;27;90727;-75
2023/07/22 06:36:22;;;;;;;;;;;;;;;;;;5078972;27;89728;-75
2023/07/22 06:38:47;;;;;;;;;;;;;;;;;;5075671;27;90615;-75
2023/07/22 06:41:12;;;;;;;;;;;;;;;;;;5080195;27;89247;-76
2023/07/22 06:43:38;;;;;;;;;;;;;;;;;;5081606;27;89533;-76
2023/07/22 06:46:03;;;;;;;;;;;;;;;;;;5078957;27;89789;-77
2023/07/22 06:48:28;;;;;;;;;;;;;;;;;;5078104;27;89445;-77
2023/07/22 06:50:53;;;;;;;;;;;;;;;;;;5080158;27;89072;-76
2023/07/22 06:53:19;;;;;;;;;;;;;;;;;;5079138;27;89497;-77
2023/07/22 06:55:51;;;;;;;;;;;;;;;;;;5076116;27;90502;-75
2023/07/22 06:58:16;;;;;;;;;;;;;;;;;;5076639;27;89124;-76
2023/07/22 07:00:41;;;;;;;;;;;;;;;;;;5072889;27;90514;-76
2023/07/22 07:03:07;;;;;;;;;;;;;;;;;;5075999;27;89094;-75
2023/07/22 07:05:32;;;;;;;;;;;;;;;;;;5075666;27;89869;-78
2023/07/22 07:07:57;;;;;;;;;;;;;;;;;;5071730;27;89974;-75
2023/07/22 07:10:22;;;;;;;;;;;;;;;;;;5077747;27;89230;-75
2023/07/22 07:12:48;;;;;;;;;;;;;;;;;;5073927;27;89981;-75
2023/07/22 07:15:13;;;;;;;;;;;;;;;;;;5075666;27;89595;-74
2023/07/22 07:17:38;;;;;;;;;;;;;;;;;;5079361;27;89626;-76
2023/07/22 07:20:04;;;;;;;;;;;;;;;;;;5076054;27;89328;-75
2023/07/22 07:22:29;;;;;;;;;;;;;;;;;;5079125;27;89558;-74
2023/07/22 07:24:55;;;;;;;;;;;;;;;;;;5075200;27;89524;-75
2023/07/22 07:27:20;;;;;;;;;;;;;;;;;;5073524;27;89338;-75
2023/07/22 07:29:45;;;;;;;;;;;;;;;;;;5071066;27;90003;-75
2023/07/22 07:32:11;;;;;;;;;;;;;;;;;;5078376;27;89948;-76
2023/07/22 07:34:36;;;;;;;;;;;;;;;;;;5070998;27;89480;-76
2023/07/22 07:37:02;;;;;;;;;;;;;;;;;;5074125;27;90202;-75
2023/07/22 07:39:28;;;;;;;;;;;;;;;;;;5073905;27;92466;-75
2023/07/22 07:41:54;;;;;;;;;;;;;;;;;;5077480;27;90755;-75
2023/07/22 07:44:19;;;;;;;;;;;;;;;;;;5074683;27;89540;-75
2023/07/22 07:46:44;;;;;;;;;;;;;;;;;;5076419;27;91156;-77
2023/07/22 07:49:09;;;;;;;;;;;;;;;;;;5074341;27;89447;-75
2023/07/22 07:51:35;;;;;;;;;;;;;;;;;;5074550;27;90862;-75
2023/07/22 07:54:00;;;;;;;;;;;;;;;;;;5080282;27;89118;-76
2023/07/22 07:56:25;;;;;;;;;;;;;;;;;;5073449;27;89582;-75
2023/07/22 07:58:53;;;;;;;;;;;;;;;;;;5072951;27;89546;-75
2023/07/22 08:01:18;;;;;;;;;;;;;;;;;;5080652;27;90985;-76
2023/07/22 08:03:44;;;;;;;;;;;;;;;;;;5076938;27;90396;-76
2023/07/22 08:06:09;;;;;;;;;;;;;;;;;;5072119;27;90163;-75
2023/07/22 08:08:35;;;;;;;;;;;;;;;;;;5072725;27;89001;-75
2023/07/22 08:11:02;;;;;;;;;;;;;;;;;;5075626;27;92410;-75
2023/07/22 08:13:29;;;;;;;;;;;;;;;;;;5076119;27;90581;-75
2023/07/22 08:15:54;;;;;;;;;;;;;;;;;;5072340;27;89645;-75
2023/07/22 08:18:20;;;;;;;;;;;;;;;;;;5083763;27;89527;-75
2023/07/22 08:20:47;;;;;;;;;;;;;;;;;;5078836;27;89780;-74
2023/07/22 08:23:12;;;;;;;;;;;;;;;;;;5082045;27;89102;-76
2023/07/22 08:25:38;;;;;;;;;;;;;;;;;;5079621;27;90231;-75
2023/07/22 08:28:03;;;;;;;;;;;;;;;;;;5077565;27;90410;-74
2023/07/22 08:30:28;;;;;;;;;;;;;;;;;;5078961;27;90623;-75
2023/07/22 08:32:53;;;;;;;;;;;;;;;;;;5079576;27;89742;-75
2023/07/22 08:35:19;;;;;;;;;;;;;;;;;;5076238;27;89518;-75
2023/07/22 08:37:44;;;;;;;;;;;;;;;;;;5077851;27;89573;-76
2023/07/22 08:40:10;;;;;;;;;;;;;;;;;;5077657;27;89361;-73
2023/07/22 08:42:36;;;;;;;;;;;;;;;;;;5078188;27;89100;-75
2023/07/22 08:45:03;;;;;;;;;;;;;;;;;;5080557;27;89780;-76
2023/07/22 08:47:29;;;;;;;;;;;;;;;;;;5083722;27;90403;-78
2023/07/22 08:49:57;;;;;;;;;;;;;;;;;;5079912;27;91010;-77
2023/07/22 08:52:22;;;;;;;;;;;;;;;;;;5076554;27;90143;-78
2023/07/22 08:54:48;;;;;;;;;;;;;;;;;;5081045;27;89525;-77
2023/07/22 08:57:14;;;;;;;;;;;;;;;;;;5078610;27;89523;-78
2023/07/22 08:59:40;;;;;;;;;;;;;;;;;;5080784;27;91207;-77
2023/07/22 09:02:08;;;;;;;;;;;;;;;;;;5079605;27;89026;-78
2023/07/22 09:04:33;;;;;;;;;;;;;;;;;;5078104;27;89910;-79
2023/07/22 09:06:58;;;;;;;;;;;;;;;;;;5078076;27;89888;-78
2023/07/22 09:09:24;;;;;;;;;;;;;;;;;;5082897;27;89438;-77
2023/07/22 09:11:51;;;;;;;;;;;;;;;;;;5079798;27;90274;-77
2023/07/22 09:14:18;;;;;;;;;;;;;;;;;;5073576;27;89556;-77
2023/07/22 09:16:43;;;;;;;;;;;;;;;;;;5081679;27;91228;-77
2023/07/22 09:19:09;;;;;;;;;;;;;;;;;;5076183;27;91566;-77
2023/07/22 09:21:35;;;;;;;;;;;;;;;;;;5073533;27;89675;-77
2023/07/22 09:24:00;;;;;;;;;;;;;;;;;;5081005;27;89555;-77
2023/07/22 09:26:26;;;;;;;;;;;;;;;;;;5075615;27;89128;-78
2023/07/22 09:28:52;;;;;;;;;;;;;;;;;;5077115;27;89517;-77
2023/07/22 09:31:18;;;;;;;;;;;;;;;;;;5076745;27;89693;-79
2023/07/22 09:33:43;;;;;;;;;;;;;;;;;;5076543;27;90586;-78
2023/07/22 09:36:10;;;;;;;;;;;;;;;;;;5072787;27;91120;-79
2023/07/22 09:38:35;;;;;;;;;;;;;;;;;;5083625;27;91636;-80
2023/07/22 09:41:01;;;;;;;;;;;;;;;;;;5076975;27;91148;-77
2023/07/22 09:43:26;;;;;;;;;;;;;;;;;;5074963;27;89596;-77
2023/07/22 09:45:53;;;;;;;;;;;;;;;;;;5071644;27;90955;-78
2023/07/22 09:48:21;;;;;;;;;;;;;;;;;;5079531;27;90021;-78
2023/07/22 09:50:46;;;;;;;;;;;;;;;;;;5076061;27;90370;-78
2023/07/22 09:53:14;;;;;;;;;;;;;;;;;;5075222;27;90015;-76
2023/07/22 09:55:40;;;;;;;;;;;;;;;;;;5074165;27;92623;-77
2023/07/22 09:58:09;;;;;;;;;;;;;;;;;;5076139;27;91206;-78
2023/07/22 10:00:35;;;;;;;;;;;;;;;;;;5089187;27;91069;-76
2023/07/22 10:03:01;;;;;;;;;;;;;;;;;;5080590;27;89517;-77
2023/07/22 10:05:27;;;;;;;;;;;;;;;;;;5078758;27;89262;-75
2023/07/22 10:07:52;;;;;;;;;;;;;;;;;;5079444;27;89383;-75
2023/07/22 10:10:18;;;;;;;;;;;;;;;;;;5076500;27;89710;-74
2023/07/22 10:12:44;;;;;;;;;;;;;;;;;;5080169;27;89453;-76
2023/07/22 10:15:11;;;;;;;;;;;;;;;;;;5078654;27;90667;-75
2023/07/22 10:17:37;;;;;;;;;;;;;;;;;;5075361;27;89559;-78
2023/07/22 10:20:06;;;;;;;;;;;;;;;;;;5080685;27;89229;-77
2023/07/22 10:22:34;;;;;;;;;;;;;;;;;;5075571;27;90628;-75
2023/07/22 10:25:00;;;;;;;;;;;;;;;;;;5077153;27;89859;-77
2023/07/22 10:27:25;;;;;;;;;;;;;;;;;;5071370;27;90354;-75
2023/07/22 10:29:51;;;;;;;;;;;;;;;;;;5070717;27;90924;-75
2023/07/22 10:32:17;;;;;;;;;;;;;;;;;;5080390;27;89178;-74
2023/07/22 10:34:42;;;;;;;;;;;;;;;;;;5081361;27;89751;-78
2023/07/22 10:37:09;;;;;;;;;;;;;;;;;;5069798;27;92001;-77
2023/07/22 10:39:34;;;;;;;;;;;;;;;;;;5079249;27;89348;-72
2023/07/22 10:42:04;;;;;;;;;;;;;;;;;;5072930;27;89412;-74
2023/07/22 10:44:30;;;;;;;;;;;;;;;;;;5072383;27;90027;-76
2023/07/22 10:46:59;;;;;;;;;;;;;;;;;;5073209;27;89061;-77
2023/07/22 10:49:27;;;;;;;;;;;;;;;;;;5077356;27;89570;-77
2023/07/22 10:51:52;;;;;;;;;;;;;;;;;;5075558;27;89786;-77
2023/07/22 10:54:34;;;;;;;;;;;;;;;;;;5080954;27;89751;-77
2023/07/22 10:57:06;;;;;;;;;;;;;;;;;;5075017;27;90272;-76
2023/07/22 10:59:33;;;;;;;;;;;;;;;;;;5077496;27;89059;-76
2023/07/22 11:01:58;;;;;;;;;;;;;;;;;;5080337;27;90983;-77
2023/07/22 11:04:34;;;;;;;;;;;;;;;;;;5074942;27;92309;-76
2023/07/22 11:07:04;;;;;;;;;;;;;;;;;;5077878;27;89491;-71
2023/07/22 11:09:29;;;;;;;;;;;;;;;;;;5071884;27;89182;-71
2023/07/22 11:11:58;;;;;;;;;;;;;;;;;;5073782;27;90267;-70
2023/07/22 11:14:24;;;;;;;;;;;;;;;;;;5075314;27;89037;-73
2023/07/22 11:16:49;;;;;;;;;;;;;;;;;;5075662;27;89288;-73
2023/07/22 11:19:15;;;;;;;;;;;;;;;;;;5074408;27;89964;-71
2023/07/22 11:21:41;;;;;;;;;;;;;;;;;;5079605;27;89829;-76
2023/07/22 11:24:07;;;;;;;;;;;;;;;;;;5069486;27;91013;-74
2023/07/22 11:26:32;;;;;;;;;;;;;;;;;;5072256;27;90019;-77
2023/07/22 11:28:59;;;;;;;;;;;;;;;;;;5075543;27;90734;-75
2023/07/22 11:31:38;;;;;;;;;;;;;;;;;;5076013;27;89934;-74
2023/07/22 11:34:04;;;;;;;;;;;;;;;;;;5076954;27;90458;-74
2023/07/22 11:36:29;;;;;;;;;;;;;;;;;;5079315;27;92391;-74
2023/07/22 11:39:01;;;;;;;;;;;;;;;;;;5071406;27;89107;-75
2023/07/22 11:41:26;;;;;;;;;;;;;;;;;;5092621;27;92083;-74
2023/07/22 11:43:51;;;;;;;;;;;;;;;;;;5073190;27;89445;-75
2023/07/22 11:46:17;;;;;;;;;;;;;;;;;;5072888;27;89185;-75
2023/07/22 11:48:48;;;;;;;;;;;;;;;;;;5074307;27;90702;-75
2023/07/22 11:51:15;;;;;;;;;;;;;;;;;;5080072;27;89596;-74
2023/07/22 11:53:41;;;;;;;;;;;;;;;;;;5084190;27;89018;-76
2023/07/22 11:56:06;;;;;;;;;;;;;;;;;;5080256;27;89043;-76
2023/07/22 11:58:32;;;;;;;;;;;;;;;;;;5086512;27;89625;-75
2023/07/22 12:01:05;;;;;;;;;;;;;;;;;;5074263;27;92387;-77
2023/07/22 12:03:32;;;;;;;;;;;;;;;;;;5083081;27;89826;-74
2023/07/22 12:06:00;;;;;;;;;;;;;;;;;;5076758;27;89546;-76
2023/07/22 12:08:25;;;;;;;;;;;;;;;;;;5080006;27;89631;-77
2023/07/22 12:11:00;;;;;;;;;;;;;;;;;;5082584;27;89184;-75
2023/07/22 12:13:25;;;;;;;;;;;;;;;;;;5083850;27;90100;-74
2023/07/22 12:16:04;;;;;;;;;;;;;;;;;;5077396;27;90441;-75
2023/07/22 12:18:50;;;;;;;;;;;;;;;;;;5081874;27;90632;-76
2023/07/22 12:21:15;;;;;;;;;;;;;;;;;;5078168;27;89042;-74
2023/07/22 12:23:41;;;;;;;;;;;;;;;;;;5084333;27;89728;-75
2023/07/22 12:26:07;;;;;;;;;;;;;;;;;;5078952;27;90864;-77
2023/07/22 12:28:32;;;;;;;;;;;;;;;;;;5082319;27;89577;-76
2023/07/22 12:30:57;;;;;;;;;;;;;;;;;;5076997;27;89228;-76
2023/07/22 12:33:26;;;;;;;;;;;;;;;;;;5078375;27;89101;-76
2023/07/22 12:35:56;;;;;;;;;;;;;;;;;;5079772;27;90350;-77
2023/07/22 12:38:21;;;;;;;;;;;;;;;;;;5077048;27;89178;-77
2023/07/22 12:40:46;;;;;;;;;;;;;;;;;;5077392;27;89951;-77
2023/07/22 12:43:11;;;;;;;;;;;;;;;;;;5076453;27;89510;-74
2023/07/22 12:45:37;;;;;;;;;;;;;;;;;;5074157;27;89600;-77
2023/07/22 12:48:02;;;;;;;;;;;;;;;;;;5078445;27;89520;-76
2023/07/22 12:50:29;;;;;;;;;;;;;;;;;;5077837;27;90259;-77
2023/07/22 12:52:55;;;;;;;;;;;;;;;;;;5077150;27;89905;-76
2023/07/22 12:55:20;;;;;;;;;;;;;;;;;;5079737;27;89548;-78
2023/07/22 12:57:45;;;;;;;;;;;;;;;;;;5077606;27;89573;-78
2023/07/22 13:00:11;;;;;;;;;;;;;;;;;;5075305;27;89928;-78
2023/07/22 13:02:37;;;;;;;;;;;;;;;;;;5080952;27;89106;-79
2023/07/22 13:05:02;;;;;;;;;;;;;;;;;;5082068;27;90085;-79
2023/07/22 13:07:27;;;;;;;;;;;;;;;;;;5078334;27;90065;-79
2023/07/22 13:09:56;;;;;;;;;;;;;;;;;;5080378;27;89512;-76
2023/07/22 13:12:22;;;;;;;;;;;;;;;;;;5076640;27;89539;-78
2023/07/22 13:14:47;;;;;;;;;;;;;;;;;;5077603;27;90070;-78
2023/07/22 13:17:12;;;;;;;;;;;;;;;;;;5079147;27;89292;-78
2023/07/22 13:19:37;;;;;;;;;;;;;;;;;;5077199;27;89947;-77
2023/07/22 13:22:03;;;;;;;;;;;;;;;;;;5074271;27;90775;-77
2023/07/22 13:24:29;;;;;;;;;;;;;;;;;;5080744;27;89311;-78
2023/07/22 13:26:54;;;;;;;;;;;;;;;;;;5077588;27;89645;-78
2023/07/22 13:29:19;;;;;;;;;;;;;;;;;;5077695;27;89611;-78
2023/07/22 13:31:45;;;;;;;;;;;;;;;;;;5078280;27;89506;-78
2023/07/22 13:34:10;;;;;;;;;;;;;;;;;;5076591;27;89807;-77
2023/07/22 13:36:36;;;;;;;;;;;;;;;;;;5080895;27;89353;-78
2023/07/22 13:39:01;;;;;;;;;;;;;;;;;;5078318;27;89078;-77
2023/07/22 13:41:26;;;;;;;;;;;;;;;;;;5078989;27;90012;-77
2023/07/22 13:43:51;;;;;;;;;;;;;;;;;;5080179;27;90279;-79
2023/07/22 13:46:16;;;;;;;;;;;;;;;;;;5084668;27;89930;-77
2023/07/22 13:48:42;;;;;;;;;;;;;;;;;;5076329;27;90972;-78
2023/07/22 13:51:07;;;;;;;;;;;;;;;;;;5078821;27;89359;-77
2023/07/22 13:53:32;;;;;;;;;;;;;;;;;;5075632;27;89766;-78
2023/07/22 13:55:57;;;;;;;;;;;;;;;;;;5072061;27;89705;-78
2023/07/22 13:58:23;;;;;;;;;;;;;;;;;;5083618;27;89860;-78
2023/07/22 14:00:48;;;;;;;;;;;;;;;;;;5082328;27;90252;-77
2023/07/22 14:03:14;;;;;;;;;;;;;;;;;;5072461;27;89401;-78
2023/07/22 14:05:39;;;;;;;;;;;;;;;;;;5075070;27;89842;-77
2023/07/22 14:08:04;;;;;;;;;;;;;;;;;;5078240;27;90106;-78
2023/07/22 14:10:29;;;;;;;;;;;;;;;;;;5076074;27;89980;-77
2023/07/22 14:12:55;;;;;;;;;;;;;;;;;;5076092;27;89578;-78
2023/07/22 14:15:20;;;;;;;;;;;;;;;;;;5077624;27;92135;-78
2023/07/22 14:17:45;;;;;;;;;;;;;;;;;;5079406;27;89518;-78
2023/07/22 14:20:14;;;;;;;;;;;;;;;;;;5073597;27;89569;-78
2023/07/22 14:22:39;;;;;;;;;;;;;;;;;;5076282;27;89596;-78
2023/07/22 14:25:05;;;;;;;;;;;;;;;;;;5077076;27;89224;-78
2023/07/22 14:27:30;;;;;;;;;;;;;;;;;;5072728;27;90754;-78
2023/07/22 14:29:55;;;;;;;;;;;;;;;;;;5077747;27;89922;-79
2023/07/22 14:32:20;;;;;;;;;;;;;;;;;;5072072;27;90095;-79
2023/07/22 14:34:45;;;;;;;;;;;;;;;;;;5073279;27;89298;-77
2023/07/22 14:37:11;;;;;;;;;;;;;;;;;;5079708;27;89733;-77
2023/07/22 14:39:36;;;;;;;;;;;;;;;;;;5081607;27;89547;-76
2023/07/22 14:42:01;;;;;;;;;;;;;;;;;;5077622;27;89359;-78
2023/07/22 14:44:26;;;;;;;;;;;;;;;;;;5082331;27;89703;-78
2023/07/22 14:46:52;;;;;;;;;;;;;;;;;;5079453;27;89601;-77
2023/07/22 14:49:17;;;;;;;;;;;;;;;;;;5076547;27;90063;-79
2023/07/22 14:51:42;;;;;;;;;;;;;;;;;;5083886;27;89050;-75
2023/07/22 14:54:08;;;;;;;;;;;;;;;;;;5073477;27;89937;-79
2023/07/22 14:56:34;;;;;;;;;;;;;;;;;;5075896;27;89435;-79
2023/07/22 14:58:59;;;;;;;;;;;;;;;;;;5079113;27;89895;-78
2023/07/22 15:01:25;;;;;;;;;;;;;;;;;;5072524;27;89188;-76
2023/07/22 15:03:50;;;;;;;;;;;;;;;;;;5074550;27;88957;-78
2023/07/22 15:06:15;;;;;;;;;;;;;;;;;;5077552;27;89863;-78
2023/07/22 15:08:40;;;;;;;;;;;;;;;;;;5073476;27;90111;-78
2023/07/22 15:11:07;;;;;;;;;;;;;;;;;;5071720;27;89500;-79
2023/07/22 15:13:33;;;;;;;;;;;;;;;;;;5082698;27;89961;-78
2023/07/22 15:15:58;;;;;;;;;;;;;;;;;;5075331;27;90438;-79
2023/07/22 15:18:24;;;;;;;;;;;;;;;;;;5079279;27;90677;-78
2023/07/22 15:20:50;;;;;;;;;;;;;;;;;;5077366;27;90992;-79
2023/07/22 15:23:16;;;;;;;;;;;;;;;;;;5072416;27;89904;-79
2023/07/22 15:25:41;;;;;;;;;;;;;;;;;;5078520;27;90670;-78
2023/07/22 15:28:07;;;;;;;;;;;;;;;;;;5076533;27;89357;-79
2023/07/22 15:30:32;;;;;;;;;;;;;;;;;;5074070;27;89104;-80
2023/07/22 15:32:57;;;;;;;;;;;;;;;;;;5076993;27;90501;-78
2023/07/22 15:35:22;;;;;;;;;;;;;;;;;;5074977;27;89319;-78
2023/07/22 15:37:47;;;;;;;;;;;;;;;;;;5076416;27;90258;-78
2023/07/22 15:40:13;;;;;;;;;;;;;;;;;;5079456;27;89790;-79
2023/07/22 15:42:38;;;;;;;;;;;;;;;;;;5079514;27;89766;-78
2023/07/22 15:45:03;;;;;;;;;;;;;;;;;;5078643;27;89570;-77
2023/07/22 15:47:28;;;;;;;;;;;;;;;;;;5074063;27;90458;-78
2023/07/22 15:49:54;;;;;;;;;;;;;;;;;;5074310;27;91031;-79
2023/07/22 15:52:19;;;;;;;;;;;;;;;;;;5075325;27;89624;-78
2023/07/22 15:54:44;;;;;;;;;;;;;;;;;;5074553;27;89127;-80
2023/07/22 15:57:10;;;;;;;;;;;;;;;;;;5078675;27;89548;-79
2023/07/22 15:59:35;;;;;;;;;;;;;;;;;;5079370;27;90803;-79
2023/07/22 16:02:00;;;;;;;;;;;;;;;;;;5078846;27;89236;-79
2023/07/22 16:04:26;;;;;;;;;;;;;;;;;;5077880;27;90467;-77
2023/07/22 16:06:51;;;;;;;;;;;;;;;;;;5074194;27;90199;-79
2023/07/22 16:09:17;;;;;;;;;;;;;;;;;;5080748;27;89481;-78
2023/07/22 16:11:42;;;;;;;;;;;;;;;;;;5076669;27;90652;-79
2023/07/22 16:14:07;;;;;;;;;;;;;;;;;;5078035;27;89173;-79
2023/07/22 16:16:32;;;;;;;;;;;;;;;;;;5079444;27;89294;-79
2023/07/22 16:18:57;;;;;;;;;;;;;;;;;;5070825;27;89268;-77
2023/07/22 16:21:23;;;;;;;;;;;;;;;;;;5077620;27;90583;-78
2023/07/22 16:23:48;;;;;;;;;;;;;;;;;;5081445;27;89544;-80
2023/07/22 16:26:13;;;;;;;;;;;;;;;;;;5080839;27;89302;-79
2023/07/22 16:28:38;;;;;;;;;;;;;;;;;;5075733;27;89642;-79
2023/07/22 16:31:04;;;;;;;;;;;;;;;;;;5072899;27;89809;-80
2023/07/22 16:33:29;;;;;;;;;;;;;;;;;;5071107;27;89219;-82
2023/07/22 16:35:54;;;;;;;;;;;;;;;;;;5076655;27;89130;-79